Garcia Miguel — CUGT9 — position and weather

sailwx.info

Track history (hours):
 
Tides and Currents Weather Stations Pressure Air Temp Water Temp Dewpoint Dewpoint Depression Visibility Wind Speed Wind Dir Waves Ship Positions

Garcia Miguel

Last reported at 2014-Jul-29 20:34 UTC. Time now 2014-Jul-29 21:03 UTC.
Position N 37°40' W 028°54'.

Length 20 m.

Type: Fishing. MMSI: 263500286.

Date/timePositionNaut miles runAvg speedWind from/ knotsBaromVisibWave heightAir tempDewpointWater temp
2014-Jul-29 20:34N 37°40' W 028°54'2 2.2
2014-Jul-29 19:33N 37°38' W 028°55'1 0.8
2014-Jul-29 18:33N 37°38' W 028°54'6 5.7
2014-Jul-29 17:33N 37°41' W 028°48'7 7.2
2014-Jul-29 16:33N 37°44' W 028°40'7 7.0
2014-Jul-29 15:33N 37°47' W 028°31'8 7.5
2014-Jul-29 14:33N 37°50' W 028°22'7 7.2
2014-Jul-29 13:33N 37°52' W 028°14'7 7.0
2014-Jul-29 12:33N 37°54' W 028°06'7 6.9
2014-Jul-29 11:33N 37°57' W 027°57'7 6.7
2014-Jul-29 10:33N 37°59' W 027°49'7 6.5
2014-Jul-29 09:33N 38°02' W 027°42'7 6.8
2014-Jul-29 08:33N 38°05' W 027°34'7 7.3
2014-Jul-29 07:33N 38°08' W 027°25'7 6.7
2014-Jul-29 06:33N 38°10' W 027°18'7 6.7
2014-Jul-29 05:33N 38°14' W 027°10'7 6.6
2014-Jul-29 04:33N 38°17' W 027°03'7 6.7
2014-Jul-29 03:33N 38°20' W 026°55'3 3.3
2014-Jul-29 02:33N 38°21' W 026°51'1 0.7
2014-Jul-29 01:33N 38°21' W 026°52'1 0.8
2014-Jul-29 00:33N 38°21' W 026°53'0 0.5
2014-Jul-28 23:33N 38°21' W 026°54'0 0.3
2014-Jul-28 22:33N 38°21' W 026°53'1 1.0
2014-Jul-28 21:33N 38°21' W 026°52'1 0.8
2014-Jul-28 20:33N 38°21' W 026°51'1 0.9
2014-Jul-28 19:33N 38°21' W 026°52'1 1.0
2014-Jul-28 18:34N 38°21' W 026°54'5 5.4
2014-Jul-28 17:33N 38°22' W 026°47'6 6.4
2014-Jul-28 16:33N 38°24' W 026°39'7 6.5
2014-Jul-28 15:33N 38°26' W 026°31'7 6.6
2014-Jul-28 14:33N 38°28' W 026°23'7 7.1
2014-Jul-28 13:33N 38°30' W 026°14'7 7.1
2014-Jul-28 12:33N 38°33' W 026°06'7 6.8
2014-Jul-28 11:34N 38°35' W 025°58'7 7.0
2014-Jul-28 10:32N 38°36' W 025°49'7 6.7
2014-Jul-28 09:33N 38°36' W 025°40'6 6.5
2014-Jul-28 08:33N 38°36' W 025°32'6 6.5
2014-Jul-28 07:33N 38°37' W 025°24'7 6.5
2014-Jul-28 06:33N 38°36' W 025°15'7 6.9
2014-Jul-28 05:33N 38°35' W 025°07'7 7.3
2014-Jul-28 04:32N 38°34' W 024°57'31 7.1
2014-Jul-28 00:07N 38°34' W 024°17'  
2014-Jul-22 10:04N 39°21' W 009°22'  
Track history (hours):
 
Tides and Currents Weather Stations Pressure Air Temp Water Temp Dewpoint Dewpoint Depression Visibility Wind Speed Wind Dir Waves Ship Positions

Garcia Miguel

Last reported at 2014-Jul-29 20:34 UTC. Time now 2014-Jul-29 21:03 UTC.
Position N 37°40' W 028°54'.

Length 20 m.

Type: Fishing. MMSI: 263500286.

Date/timePositionNaut miles runAvg speedWind from/ knotsBaromVisibWave heightAir tempDewpointWater temp
2014-Jul-29 20:34N 37°40' W 028°54'2 2.2
2014-Jul-29 19:33N 37°38' W 028°55'1 0.8
2014-Jul-29 18:33N 37°38' W 028°54'6 5.7
2014-Jul-29 17:33N 37°41' W 028°48'7 7.2
2014-Jul-29 16:33N 37°44' W 028°40'7 7.0
2014-Jul-29 15:33N 37°47' W 028°31'8 7.5
2014-Jul-29 14:33N 37°50' W 028°22'7 7.2
2014-Jul-29 13:33N 37°52' W 028°14'7 7.0
2014-Jul-29 12:33N 37°54' W 028°06'7 6.9
2014-Jul-29 11:33N 37°57' W 027°57'7 6.7
2014-Jul-29 10:33N 37°59' W 027°49'7 6.5
2014-Jul-29 09:33N 38°02' W 027°42'7 6.8
2014-Jul-29 08:33N 38°05' W 027°34'7 7.3
2014-Jul-29 07:33N 38°08' W 027°25'7 6.7
2014-Jul-29 06:33N 38°10' W 027°18'7 6.7
2014-Jul-29 05:33N 38°14' W 027°10'7 6.6
2014-Jul-29 04:33N 38°17' W 027°03'7 6.7
2014-Jul-29 03:33N 38°20' W 026°55'3 3.3
2014-Jul-29 02:33N 38°21' W 026°51'1 0.7
2014-Jul-29 01:33N 38°21' W 026°52'1 0.8
2014-Jul-29 00:33N 38°21' W 026°53'0 0.5
2014-Jul-28 23:33N 38°21' W 026°54'0 0.3
2014-Jul-28 22:33N 38°21' W 026°53'1 1.0
2014-Jul-28 21:33N 38°21' W 026°52'1 0.8
2014-Jul-28 20:33N 38°21' W 026°51'1 0.9
2014-Jul-28 19:33N 38°21' W 026°52'1 1.0
2014-Jul-28 18:34N 38°21' W 026°54'5 5.4
2014-Jul-28 17:33N 38°22' W 026°47'6 6.4
2014-Jul-28 16:33N 38°24' W 026°39'7 6.5
2014-Jul-28 15:33N 38°26' W 026°31'7 6.6
2014-Jul-28 14:33N 38°28' W 026°23'7 7.1
2014-Jul-28 13:33N 38°30' W 026°14'7 7.1
2014-Jul-28 12:33N 38°33' W 026°06'7 6.8
2014-Jul-28 11:34N 38°35' W 025°58'7 7.0
2014-Jul-28 10:32N 38°36' W 025°49'7 6.7
2014-Jul-28 09:33N 38°36' W 025°40'6 6.5
2014-Jul-28 08:33N 38°36' W 025°32'6 6.5
2014-Jul-28 07:33N 38°37' W 025°24'7 6.5
2014-Jul-28 06:33N 38°36' W 025°15'7 6.9
2014-Jul-28 05:33N 38°35' W 025°07'7 7.3
2014-Jul-28 04:32N 38°34' W 024°57'31 7.1
2014-Jul-28 00:07N 38°34' W 024°17'  
2014-Jul-22 10:04N 39°21' W 009°22'  

Dump ship's entire track history